Time;durP1;ratioP1;P1;durP2;ratioP2;P2;SDS_P1;SDS_P2;PMS_P1;PMS_P2;Temp;Humidity;BMP_temperature;BMP_pressure;BME280_temperature;BME280_humidity;BME280_pressure;Samples;Min_cycle;Max_cycle;Signal;HPM_P1;HPM_P2
2021/11/27 00:00:21;;;;;;;;;;;;;;;1.31;91.42;95941.50;1730243;81;22771;-84
2021/11/27 00:02:49;;;;;;;;;;;;;;;1.30;91.44;95947.61;1694069;81;23614;-84
2021/11/27 00:05:17;;;;;;;;;;;;;;;1.29;91.47;95940.80;1732687;81;24471;-83
2021/11/27 00:07:43;;;;;;;;;;;;;;;1.30;91.50;95943.74;1722099;81;20700;-85
2021/11/27 00:10:11;;;;;;;;;;;;;;;1.31;91.53;95949.23;1720909;81;24742;-84
2021/11/27 00:12:37;;;;;;;;;;;;;;;1.34;91.57;95952.06;1727285;81;21975;-84
2021/11/27 00:15:06;;;;;;;;;;;;;;;1.36;91.60;95956.64;1746365;79;26074;-84
2021/11/27 00:17:32;;;;;;;;;;;;;;;1.37;91.64;95953.11;1776504;79;24458;-84
2021/11/27 00:19:58;;;;;;;;;;;;;;;1.37;91.67;95962.95;1782393;79;20202;-84
2021/11/27 00:22:24;;;;;;;;;;;;;;;1.36;91.70;95958.76;1777275;79;20748;-85
2021/11/27 00:24:50;;;;;;;;;;;;;;;1.38;91.75;95956.88;1769782;79;22664;-84
2021/11/27 00:27:17;;;;;;;;;;;;;;;1.39;91.78;95961.56;1753247;79;26708;-85
2021/11/27 00:29:43;;;;;;;;;;;;;;;1.42;91.80;95960.07;1781231;78;24470;-85
2021/11/27 00:32:09;;;;;;;;;;;;;;;1.43;91.83;95958.64;1772531;79;20245;-84
2021/11/27 00:34:38;;;;;;;;;;;;;;;1.45;91.87;95959.83;1768228;79;24965;-84
2021/11/27 00:37:04;;;;;;;;;;;;;;;1.45;91.89;95961.12;1784637;79;21967;-83
2021/11/27 00:39:30;;;;;;;;;;;;;;;1.46;91.92;95962.30;1779559;79;25934;-83
2021/11/27 00:41:56;;;;;;;;;;;;;;;1.49;91.95;95961.24;1776497;79;24552;-83
2021/11/27 00:44:23;;;;;;;;;;;;;;;1.48;91.98;95969.90;1761220;79;20308;-83
2021/11/27 00:46:50;;;;;;;;;;;;;;;1.51;92.01;95973.09;1791251;79;24826;-83
2021/11/27 00:49:18;;;;;;;;;;;;;;;1.52;92.02;95973.92;1782563;79;22311;-83
2021/11/27 00:51:45;;;;;;;;;;;;;;;1.55;92.05;95977.55;1789489;79;25465;-83
2021/11/27 00:54:11;;;;;;;;;;;;;;;1.59;92.07;95970.77;1768951;79;24432;-83
2021/11/27 00:56:38;;;;;;;;;;;;;;;1.60;92.10;95972.41;1765156;79;20488;-83
2021/11/27 00:59:04;;;;;;;;;;;;;;;1.62;92.13;95971.84;1712472;81;25018;-83
2021/11/27 01:01:31;;;;;;;;;;;;;;;1.67;92.16;95967.16;1755871;79;20250;-83
2021/11/27 01:03:58;;;;;;;;;;;;;;;1.71;92.19;95964.34;1783565;79;25421;-83
2021/11/27 01:06:25;;;;;;;;;;;;;;;1.76;92.22;95965.65;1774863;79;24523;-83
2021/11/27 01:08:53;;;;;;;;;;;;;;;1.78;92.26;95970.23;1757276;79;20252;-83
2021/11/27 01:11:22;;;;;;;;;;;;;;;1.81;92.29;95962.26;1776930;79;24756;-83
2021/11/27 01:13:49;;;;;;;;;;;;;;;1.87;92.32;95952.78;1784789;79;22148;-83
2021/11/27 01:16:16;;;;;;;;;;;;;;;1.90;92.35;95945.30;1781444;78;27282;-83
2021/11/27 01:18:42;;;;;;;;;;;;;;;1.93;92.39;95942.47;1759138;79;24296;-83
2021/11/27 01:21:09;;;;;;;;;;;;;;;1.95;92.42;95943.19;1758800;79;20473;-83
2021/11/27 01:23:37;;;;;;;;;;;;;;;2.02;92.47;95945.17;1772441;78;24661;-82
2021/11/27 01:26:04;;;;;;;;;;;;;;;2.09;92.47;95942.48;1761512;79;22092;-83
2021/11/27 01:28:30;;;;;;;;;;;;;;;2.11;92.48;95943.67;1766512;78;26013;-83
2021/11/27 01:30:57;;;;;;;;;;;;;;;2.11;92.50;95948.83;1723172;80;25198;-83
2021/11/27 01:33:24;;;;;;;;;;;;;;;2.12;92.52;95944.03;1781546;79;20286;-83
2021/11/27 01:35:52;;;;;;;;;;;;;;;2.13;92.51;95936.62;1771670;78;24926;-83
2021/11/27 01:38:19;;;;;;;;;;;;;;;2.15;92.50;95930.88;1773718;79;21969;-83
2021/11/27 01:40:45;;;;;;;;;;;;;;;2.16;92.50;95935.58;1777197;79;25975;-83
2021/11/27 01:43:11;;;;;;;;;;;;;;;2.12;92.49;95946.61;1777175;79;24711;-83
2021/11/27 01:45:38;;;;;;;;;;;;;;;2.10;92.47;95952.34;1783985;79;20211;-84
2021/11/27 01:48:06;;;;;;;;;;;;;;;2.04;92.41;95958.78;1783816;79;24847;-83
2021/11/27 01:50:36;;;;;;;;;;;;;;;1.99;92.38;95971.20;1774797;79;21914;-83
2021/11/27 01:53:04;;;;;;;;;;;;;;;1.90;92.31;95978.36;1774972;79;26015;-83
2021/11/27 01:55:30;;;;;;;;;;;;;;;1.87;92.29;95978.56;1779973;78;24440;-84
2021/11/27 01:58:01;;;;;;;;;;;;;;;1.84;92.24;95974.94;1750710;79;20267;-84
2021/11/27 02:00:26;;;;;;;;;;;;;;;1.84;92.20;95977.52;1776127;79;24774;-82
2021/11/27 02:02:53;;;;;;;;;;;;;;;1.82;92.18;95976.80;1776293;79;22063;-84
2021/11/27 02:05:21;;;;;;;;;;;;;;;1.82;92.16;95986.29;1761107;79;21338;-83
2021/11/27 02:07:49;;;;;;;;;;;;;;;1.77;92.13;95995.66;1765677;79;24482;-83
2021/11/27 02:10:15;;;;;;;;;;;;;;;1.74;92.10;96003.63;1762584;79;20165;-84
2021/11/27 02:12:42;;;;;;;;;;;;;;;1.72;92.08;95997.76;1769840;79;24910;-84
2021/11/27 02:15:09;;;;;;;;;;;;;;;1.74;92.09;95999.77;1750592;79;22056;-84
2021/11/27 02:17:36;;;;;;;;;;;;;;;1.80;92.08;96001.86;1788157;79;26015;-83
2021/11/27 02:20:03;;;;;;;;;;;;;;;1.80;92.10;95998.00;1783797;79;25258;-83
2021/11/27 02:22:30;;;;;;;;;;;;;;;1.81;92.10;96001.40;1761472;79;20206;-84
2021/11/27 02:24:57;;;;;;;;;;;;;;;1.82;92.12;95996.60;1777898;79;24815;-84
2021/11/27 02:27:23;;;;;;;;;;;;;;;1.85;92.14;96000.27;1783343;78;21909;-84
2021/11/27 02:29:49;;;;;;;;;;;;;;;1.86;92.15;95998.83;1762748;79;25837;-84
2021/11/27 02:32:15;;;;;;;;;;;;;;;1.89;92.19;95997.34;1748864;79;24458;-83
2021/11/27 02:34:41;;;;;;;;;;;;;;;1.90;92.21;96000.27;1781267;79;20179;-84
2021/11/27 02:37:08;;;;;;;;;;;;;;;1.94;92.24;95996.52;1783869;79;24864;-84
2021/11/27 02:39:35;;;;;;;;;;;;;;;1.97;92.25;95996.75;1774620;78;21953;-84
2021/11/27 02:42:02;;;;;;;;;;;;;;;1.99;92.29;95999.58;1778713;79;26057;-85
2021/11/27 02:44:30;;;;;;;;;;;;;;;1.98;92.27;96000.52;1775195;79;24623;-84
2021/11/27 02:46:57;;;;;;;;;;;;;;;2.00;92.29;96002.98;1778432;79;20234;-84
2021/11/27 02:49:23;;;;;;;;;;;;;;;2.01;92.30;95997.72;1778664;79;24819;-84
2021/11/27 02:51:50;;;;;;;;;;;;;;;2.01;92.30;95996.43;1763801;79;21554;-84
2021/11/27 02:54:16;;;;;;;;;;;;;;;2.02;92.30;95998.05;1788679;79;25995;-85
2021/11/27 02:56:42;;;;;;;;;;;;;;;1.99;92.29;96001.33;1769393;78;24513;-84
2021/11/27 02:59:10;;;;;;;;;;;;;;;1.97;92.27;95997.57;1756044;79;20284;-84
2021/11/27 03:01:37;;;;;;;;;;;;;;;1.96;92.27;95991.27;1762451;79;25640;-84
2021/11/27 03:04:03;;;;;;;;;;;;;;;1.93;92.24;95996.16;1759635;79;21946;-84
2021/11/27 03:06:29;;;;;;;;;;;;;;;1.92;92.23;95994.52;1783788;79;26055;-84
2021/11/27 03:08:56;;;;;;;;;;;;;;;1.91;92.21;95992.87;1778774;79;24592;-84
2021/11/27 03:11:22;;;;;;;;;;;;;;;1.92;92.18;95991.94;1778004;79;20285;-83
2021/11/27 03:13:49;;;;;;;;;;;;;;;1.93;92.19;95994.88;1786506;79;24785;-84
2021/11/27 03:16:15;;;;;;;;;;;;;;;1.94;92.19;95994.41;1771890;78;21999;-84
2021/11/27 03:18:43;;;;;;;;;;;;;;;1.93;92.17;95987.60;1776870;79;21623;-83
2021/11/27 03:21:09;;;;;;;;;;;;;;;1.91;92.17;95983.84;1776478;79;24673;-84
2021/11/27 03:23:35;;;;;;;;;;;;;;;1.90;92.20;95984.80;1768742;79;20251;-83
2021/11/27 03:26:06;;;;;;;;;;;;;;;1.87;92.18;95981.14;1787791;79;25478;-83
2021/11/27 03:28:30;;;;;;;;;;;;;;;1.91;92.18;95983.05;1776052;78;21990;-83
2021/11/27 03:30:56;;;;;;;;;;;;;;;1.94;92.20;95986.67;1760206;79;26331;-83
2021/11/27 03:33:22;;;;;;;;;;;;;;;1.99;92.20;95989.27;1780104;79;24469;-83
2021/11/27 03:35:48;;;;;;;;;;;;;;;1.98;92.21;95991.48;1778226;79;20233;-83
2021/11/27 03:38:14;;;;;;;;;;;;;;;2.03;92.23;95998.41;1787299;79;24752;-83
2021/11/27 03:40:40;;;;;;;;;;;;;;;2.05;92.23;96003.45;1777248;79;22054;-84
2021/11/27 03:43:06;;;;;;;;;;;;;;;2.04;92.23;96000.52;1790460;79;21637;-83
2021/11/27 03:45:34;;;;;;;;;;;;;;;2.03;92.23;95995.83;1760674;79;20769;-83
2021/11/27 03:48:08;;;;;;;;;;;;;;;2.06;92.23;95991.75;1779452;79;20155;-83
2021/11/27 03:50:42;;;;;;;;;;;;;;;2.11;92.23;95988.81;1778116;79;24775;-83
2021/11/27 03:53:09;;;;;;;;;;;;;;;2.14;92.26;95984.70;1780018;79;22106;-83
2021/11/27 03:55:35;;;;;;;;;;;;;;;2.14;92.27;95993.73;1779111;79;25992;-83
2021/11/27 03:58:02;;;;;;;;;;;;;;;2.15;92.26;96002.30;1778586;79;24491;-83
2021/11/27 04:00:28;;;;;;;;;;;;;;;2.16;92.25;96002.19;1781600;79;20247;-84
2021/11/27 04:02:54;;;;;;;;;;;;;;;2.17;92.24;95997.39;1784120;79;20425;-83
2021/11/27 04:05:20;;;;;;;;;;;;;;;2.17;92.22;95996.56;1758163;79;22008;-83
2021/11/27 04:07:48;;;;;;;;;;;;;;;2.14;92.21;96001.47;1771331;79;26189;-83
2021/11/27 04:10:15;;;;;;;;;;;;;;;2.10;92.19;96007.80;1779504;79;24475;-83
2021/11/27 04:12:41;;;;;;;;;;;;;;;2.06;92.12;96009.80;1779380;79;20219;-83
2021/11/27 04:15:10;;;;;;;;;;;;;;;2.03;92.06;96011.30;1741555;79;24837;-83
2021/11/27 04:17:39;;;;;;;;;;;;;;;2.00;92.05;96021.03;1778914;78;22035;-83
2021/11/27 04:20:05;;;;;;;;;;;;;;;2.00;92.02;96028.31;1782475;79;27004;-85
2021/11/27 04:22:31;;;;;;;;;;;;;;;2.02;92.01;96023.84;1791345;79;24680;-84
2021/11/27 04:24:57;;;;;;;;;;;;;;;2.01;92.00;96027.38;1776918;79;20352;-85
2021/11/27 04:27:23;;;;;;;;;;;;;;;2.01;92.00;96026.09;1786461;79;24796;-83
2021/11/27 04:29:53;;;;;;;;;;;;;;;2.03;92.00;96024.20;1740819;79;20269;-85
2021/11/27 04:32:21;;;;;;;;;;;;;;;2.07;92.01;96019.16;1784518;79;26065;-84
2021/11/27 04:34:47;;;;;;;;;;;;;;;2.12;92.01;96018.84;1785893;79;24450;-84
2021/11/27 04:37:14;;;;;;;;;;;;;;;2.18;92.03;96026.59;1761888;79;20250;-84
2021/11/27 04:39:41;;;;;;;;;;;;;;;2.16;92.02;96025.41;1776919;79;24783;-84
2021/11/27 04:42:09;;;;;;;;;;;;;;;2.13;92.03;96023.03;1754401;79;20202;-84
2021/11/27 04:44:35;;;;;;;;;;;;;;;2.13;92.03;96023.03;1781224;79;25527;-85
2021/11/27 04:47:01;;;;;;;;;;;;;;;2.15;92.00;96024.22;1778020;79;25326;-85
2021/11/27 04:49:27;;;;;;;;;;;;;;;2.14;92.01;96024.69;1755108;79;20313;-85
2021/11/27 04:51:54;;;;;;;;;;;;;;;2.16;92.01;96027.98;1788394;79;24779;-84
2021/11/27 04:54:20;;;;;;;;;;;;;;;2.17;91.98;96024.94;1782657;79;22918;-85
2021/11/27 04:56:46;;;;;;;;;;;;;;;2.20;92.00;96033.73;1783696;79;25887;-85
2021/11/27 04:59:12;;;;;;;;;;;;;;;2.21;91.97;96036.67;1767204;79;24461;-85
2021/11/27 05:01:40;;;;;;;;;;;;;;;2.20;91.98;96041.47;1774605;79;20158;-85
2021/11/27 05:04:06;;;;;;;;;;;;;;;2.17;91.97;96039.95;1776676;79;20693;-84
2021/11/27 05:06:32;;;;;;;;;;;;;;;2.20;91.97;96045.34;1776971;79;21969;-86
2021/11/27 05:08:58;;;;;;;;;;;;;;;2.18;91.96;96048.05;1769372;79;25985;-85
2021/11/27 05:11:24;;;;;;;;;;;;;;;2.15;91.96;96041.81;1768471;79;20408;-84
2021/11/27 05:13:50;;;;;;;;;;;;;;;2.11;91.91;96049.44;1763016;79;20237;-84
2021/11/27 05:16:16;;;;;;;;;;;;;;;2.09;91.88;96044.38;1768561;79;24812;-84
2021/11/27 05:18:43;;;;;;;;;;;;;;;2.12;91.86;96050.27;1787779;79;20900;-84
2021/11/27 05:21:10;;;;;;;;;;;;;;;2.11;91.84;96048.15;1771803;79;26067;-84
2021/11/27 05:23:36;;;;;;;;;;;;;;;2.09;91.82;96045.67;1781168;79;24661;-84
2021/11/27 05:26:02;;;;;;;;;;;;;;;2.09;91.80;96051.30;1767988;79;20332;-84
2021/11/27 05:28:28;;;;;;;;;;;;;;;2.03;91.78;96050.45;1780686;79;24818;-85
2021/11/27 05:30:54;;;;;;;;;;;;;;;2.01;91.76;96054.46;1784554;79;22168;-85
2021/11/27 05:33:35;;;;;;;;;;;;;;;2.00;91.71;96055.86;1756553;79;25941;-85
2021/11/27 05:35:51;;;;;;;;;;;;;;;1.95;91.69;96051.05;1766893;79;24054;-85
2021/11/27 05:38:17;;;;;;;;;;;;;;;1.92;91.65;96046.09;1777419;79;20460;-86
2021/11/27 05:40:44;;;;;;;;;;;;;;;1.93;91.65;96059.34;1774665;79;20271;-86
2021/11/27 05:43:10;;;;;;;;;;;;;;;1.93;91.62;96056.77;1783039;79;22064;-85
2021/11/27 05:45:36;;;;;;;;;;;;;;;1.93;91.59;96062.39;1760910;79;25987;-85
2021/11/27 05:48:03;;;;;;;;;;;;;;;1.94;91.60;96055.02;1771548;79;24560;-85
2021/11/27 05:50:29;;;;;;;;;;;;;;;1.93;91.59;96054.19;1773986;79;20221;-85
2021/11/27 05:52:55;;;;;;;;;;;;;;;1.91;91.59;96057.83;1724899;80;25591;-84
2021/11/27 05:55:22;;;;;;;;;;;;;;;1.89;91.58;96065.67;1728340;81;21947;-85
2021/11/27 05:57:48;;;;;;;;;;;;;;;1.85;91.55;96066.84;1770981;79;25812;-85
2021/11/27 06:00:15;;;;;;;;;;;;;;;1.84;91.53;96061.32;1783265;79;24770;-85
2021/11/27 06:02:42;;;;;;;;;;;;;;;1.80;91.52;96058.59;1779580;79;20350;-85
2021/11/27 06:05:08;;;;;;;;;;;;;;;1.80;91.49;96062.45;1782100;79;24863;-85
2021/11/27 06:07:35;;;;;;;;;;;;;;;1.79;91.48;96066.45;1784444;78;22134;-85
2021/11/27 06:10:01;;;;;;;;;;;;;;;1.76;91.47;96067.95;1780639;79;25591;-85
2021/11/27 06:12:27;;;;;;;;;;;;;;;1.74;91.45;96065.97;1790834;79;24457;-85
2021/11/27 06:14:53;;;;;;;;;;;;;;;1.75;91.44;96068.41;1779713;79;20204;-85
2021/11/27 06:17:19;;;;;;;;;;;;;;;1.70;91.41;96064.06;1787751;79;25399;-85
2021/11/27 06:19:45;;;;;;;;;;;;;;;1.72;91.42;96067.83;1784082;79;21988;-85
2021/11/27 06:22:11;;;;;;;;;;;;;;;1.76;91.42;96082.13;1776193;79;21073;-85
2021/11/27 06:24:37;;;;;;;;;;;;;;;1.76;91.47;96084.25;1761856;78;20894;-84
2021/11/27 06:27:03;;;;;;;;;;;;;;;1.80;91.49;96086.95;1741627;79;20208;-85
2021/11/27 06:29:29;;;;;;;;;;;;;;;1.81;91.50;96088.60;1784503;79;24825;-85
2021/11/27 06:31:55;;;;;;;;;;;;;;;1.82;91.50;96084.27;1784178;79;20250;-84
2021/11/27 06:34:21;;;;;;;;;;;;;;;1.85;91.54;96087.47;1782985;79;25626;-85
2021/11/27 06:36:47;;;;;;;;;;;;;;;1.87;91.56;96088.63;1776385;79;20301;-85
2021/11/27 06:39:13;;;;;;;;;;;;;;;1.88;91.57;96088.52;1776408;79;20274;-85
2021/11/27 06:41:39;;;;;;;;;;;;;;;1.93;91.60;96080.44;1775075;79;20732;-85
2021/11/27 06:44:06;;;;;;;;;;;;;;;1.97;91.65;96085.72;1754254;79;22040;-84
2021/11/27 06:46:32;;;;;;;;;;;;;;;1.98;91.69;96092.07;1775089;79;27008;-84
2021/11/27 06:48:58;;;;;;;;;;;;;;;1.99;91.72;96084.69;1784432;79;25394;-84
2021/11/27 06:51:24;;;;;;;;;;;;;;;1.99;91.71;96080.83;1759307;79;20302;-84
2021/11/27 06:53:50;;;;;;;;;;;;;;;1.99;91.72;96091.61;1776047;79;24835;-84
2021/11/27 06:56:16;;;;;;;;;;;;;;;1.99;91.72;96092.43;1783520;79;22010;-84
2021/11/27 06:58:42;;;;;;;;;;;;;;;2.02;91.72;96099.11;1766051;79;25905;-84
2021/11/27 07:01:08;;;;;;;;;;;;;;;2.10;91.78;96099.37;1780885;79;24406;-85
2021/11/27 07:03:34;;;;;;;;;;;;;;;2.16;91.80;96094.23;1782329;79;20253;-84
2021/11/27 07:06:02;;;;;;;;;;;;;;;2.20;91.81;96095.19;1740964;79;20248;-85
2021/11/27 07:08:28;;;;;;;;;;;;;;;2.22;91.80;96092.50;1785005;79;21957;-85
2021/11/27 07:10:54;;;;;;;;;;;;;;;2.25;91.80;96102.58;1774436;79;25971;-84
2021/11/27 07:13:20;;;;;;;;;;;;;;;2.25;91.79;96105.16;1778474;79;24479;-84
2021/11/27 07:15:47;;;;;;;;;;;;;;;2.22;91.79;96105.40;1773387;79;20393;-85
2021/11/27 07:18:13;;;;;;;;;;;;;;;2.22;91.79;96106.23;1780294;79;24799;-85
2021/11/27 07:20:39;;;;;;;;;;;;;;;2.20;91.74;96125.32;1779366;79;22069;-85
2021/11/27 07:23:05;;;;;;;;;;;;;;;2.19;91.72;96126.25;1793003;79;26178;-85
2021/11/27 07:25:32;;;;;;;;;;;;;;;2.18;91.67;96130.61;1779908;79;24515;-85
2021/11/27 07:28:02;;;;;;;;;;;;;;;2.17;91.65;96138.45;1769089;79;20316;-85
2021/11/27 07:30:28;;;;;;;;;;;;;;;2.20;91.65;96132.59;1775613;79;24980;-85
2021/11/27 07:32:54;;;;;;;;;;;;;;;2.24;91.64;96140.45;1728109;79;22176;-84
2021/11/27 07:35:20;;;;;;;;;;;;;;;2.23;91.59;96144.00;1781419;79;21102;-84
2021/11/27 07:37:46;;;;;;;;;;;;;;;2.22;91.56;96149.27;1775633;79;24480;-85
2021/11/27 07:40:13;;;;;;;;;;;;;;;2.21;91.55;96155.35;1742463;78;20390;-85
2021/11/27 07:42:39;;;;;;;;;;;;;;;2.23;91.52;96159.94;1752661;79;25487;-85
2021/11/27 07:45:06;;;;;;;;;;;;;;;2.23;91.47;96162.06;1776941;78;22007;-85
2021/11/27 07:47:35;;;;;;;;;;;;;;;2.25;91.44;96165.80;1758576;79;26886;-85
2021/11/27 07:50:00;;;;;;;;;;;;;;;2.30;91.43;96160.66;1784936;79;24456;-84
2021/11/27 07:52:26;;;;;;;;;;;;;;;2.37;91.45;96167.48;1782788;79;20220;-84
2021/11/27 07:54:52;;;;;;;;;;;;;;;2.43;91.45;96170.91;1788018;79;24832;-84
2021/11/27 07:57:18;;;;;;;;;;;;;;;2.44;91.46;96172.56;1754449;79;22547;-85
2021/11/27 07:59:44;;;;;;;;;;;;;;;2.45;91.46;96173.75;1761193;78;25936;-85
2021/11/27 08:02:10;;;;;;;;;;;;;;;2.50;91.49;96166.48;1765718;79;24454;-85
2021/11/27 08:04:38;;;;;;;;;;;;;;;2.51;91.50;96168.11;1788632;79;20155;-85
2021/11/27 08:07:04;;;;;;;;;;;;;;;2.61;91.51;96164.86;1781919;79;24909;-85
2021/11/27 08:09:30;;;;;;;;;;;;;;;2.64;91.52;96168.03;1742384;79;22059;-85
2021/11/27 08:11:58;;;;;;;;;;;;;;;2.68;91.52;96173.78;1771977;79;26139;-85
2021/11/27 08:14:34;;;;;;;;;;;;;;;2.72;91.50;96180.38;1766400;78;25259;-85
2021/11/27 08:17:04;;;;;;;;;;;;;;;2.76;91.50;96189.53;1750365;79;20527;-85
2021/11/27 08:19:33;;;;;;;;;;;;;;;2.73;91.46;96192.33;1769212;78;24842;-85
2021/11/27 08:21:59;;;;;;;;;;;;;;;2.70;91.41;96197.27;1713855;82;21561;-85
2021/11/27 08:24:26;;;;;;;;;;;;;;;2.68;91.35;96204.77;1707320;82;26109;-85
2021/11/27 08:26:53;;;;;;;;;;;;;;;2.66;91.33;96201.48;1714663;81;24413;-85
2021/11/27 08:29:19;;;;;;;;;;;;;;;2.64;91.30;96200.30;1717512;83;20291;-84
2021/11/27 08:31:50;;;;;;;;;;;;;;;2.64;91.29;96199.48;1683488;82;25656;-85
2021/11/27 08:34:14;;;;;;;;;;;;;;;2.59;91.28;96183.50;1707346;82;22077;-85
2021/11/27 08:36:41;;;;;;;;;;;;;;;2.51;91.26;96177.14;1711137;82;25961;-85
2021/11/27 08:39:08;;;;;;;;;;;;;;;2.46;91.23;96171.50;1721860;81;24414;-85
2021/11/27 08:41:35;;;;;;;;;;;;;;;2.45;91.21;96172.92;1715029;82;20319;-85
2021/11/27 08:44:01;;;;;;;;;;;;;;;2.42;91.17;96179.12;1767010;79;24769;-85
2021/11/27 08:46:30;;;;;;;;;;;;;;;2.47;91.15;96185.23;1792222;79;22970;-85
2021/11/27 08:48:57;;;;;;;;;;;;;;;2.57;91.18;96193.94;1746804;79;25980;-85
2021/11/27 08:51:25;;;;;;;;;;;;;;;2.70;91.22;96194.69;1752778;79;20940;-84
2021/11/27 08:53:51;;;;;;;;;;;;;;;2.75;91.23;96199.04;1780744;79;20245;-85
2021/11/27 08:56:17;;;;;;;;;;;;;;;2.82;91.30;96196.36;1772814;79;20236;-85
2021/11/27 08:58:43;;;;;;;;;;;;;;;2.91;91.29;96194.84;1782190;78;20875;-85
2021/11/27 09:01:10;;;;;;;;;;;;;;;2.86;91.29;96185.33;1780623;79;25958;-85
2021/11/27 09:03:36;;;;;;;;;;;;;;;2.86;91.31;96182.27;1769027;79;24440;-85
2021/11/27 09:06:03;;;;;;;;;;;;;;;2.93;91.31;96186.52;1789131;79;20235;-85
2021/11/27 09:08:30;;;;;;;;;;;;;;;3.05;91.29;96186.89;1782544;79;24905;-85
2021/11/27 09:10:57;;;;;;;;;;;;;;;3.18;91.33;96188.05;1780699;78;22010;-85
2021/11/27 09:13:23;;;;;;;;;;;;;;;3.28;91.35;96192.40;1782499;78;25982;-85
2021/11/27 09:15:49;;;;;;;;;;;;;;;3.33;91.34;96203.20;1776880;78;24392;-85
2021/11/27 09:18:15;;;;;;;;;;;;;;;3.41;91.35;96198.75;1783263;78;20285;-85
2021/11/27 09:20:41;;;;;;;;;;;;;;;3.47;91.36;96191.00;1772829;79;24824;-85
2021/11/27 09:23:14;;;;;;;;;;;;;;;3.50;91.36;96194.16;1788556;79;22981;-85
2021/11/27 09:25:42;;;;;;;;;;;;;;;3.48;91.34;96193.94;1781242;79;26675;-85
2021/11/27 09:28:08;;;;;;;;;;;;;;;3.50;91.37;96197.20;1748812;79;25205;-84
2021/11/27 09:30:35;;;;;;;;;;;;;;;3.55;91.34;96206.25;1782812;79;20239;-85
2021/11/27 09:33:01;;;;;;;;;;;;;;;3.60;91.36;96206.72;1776349;79;24707;-85
2021/11/27 09:35:27;;;;;;;;;;;;;;;3.71;91.35;96209.76;1782226;79;21924;-84
2021/11/27 09:37:53;;;;;;;;;;;;;;;3.74;91.36;96207.78;1759534;79;20898;-85
2021/11/27 09:40:19;;;;;;;;;;;;;;;3.87;91.39;96202.47;1783956;79;24617;-85
2021/11/27 09:42:47;;;;;;;;;;;;;;;3.92;91.40;96196.93;1748435;79;20199;-85
2021/11/27 09:45:13;;;;;;;;;;;;;;;3.86;91.41;96189.18;1785206;79;24764;-85
2021/11/27 09:47:41;;;;;;;;;;;;;;;3.86;91.38;96193.53;1772420;78;22284;-86
2021/11/27 09:50:08;;;;;;;;;;;;;;;3.89;91.33;96194.56;1763020;79;26765;-85
2021/11/27 09:52:34;;;;;;;;;;;;;;;3.83;91.27;96201.05;1773711;79;24447;-84
2021/11/27 09:55:02;;;;;;;;;;;;;;;3.81;91.22;96200.83;1774626;79;20461;-85
2021/11/27 09:57:28;;;;;;;;;;;;;;;3.82;91.14;96198.60;1785055;79;24843;-85
2021/11/27 09:59:54;;;;;;;;;;;;;;;3.82;91.08;96202.48;1779433;79;21886;-85
2021/11/27 10:02:25;;;;;;;;;;;;;;;3.82;91.04;96202.48;1782952;78;21032;-84
2021/11/27 10:04:52;;;;;;;;;;;;;;;3.79;90.96;96203.06;1760722;79;24492;-86
2021/11/27 10:07:20;;;;;;;;;;;;;;;3.82;90.87;96201.19;1772079;79;20465;-84
2021/11/27 10:09:47;;;;;;;;;;;;;;;3.81;90.83;96210.72;1760240;79;24740;-84
2021/11/27 10:12:13;;;;;;;;;;;;;;;3.81;90.82;96213.30;1777804;79;22873;-84
2021/11/27 10:14:41;;;;;;;;;;;;;;;3.85;90.79;96209.98;1785667;79;26105;-84
2021/11/27 10:17:12;;;;;;;;;;;;;;;3.83;90.76;96209.27;1775642;79;24387;-85
2021/11/27 10:19:43;;;;;;;;;;;;;;;3.85;90.73;96202.23;1777544;78;20222;-85
2021/11/27 10:22:12;;;;;;;;;;;;;;;3.89;90.70;96207.03;1776252;79;21832;-86
2021/11/27 10:24:39;;;;;;;;;;;;;;;3.85;90.65;96203.52;1777663;79;21949;-86
2021/11/27 10:27:07;;;;;;;;;;;;;;;3.87;90.59;96202.47;1781415;79;26072;-86
2021/11/27 10:29:35;;;;;;;;;;;;;;;3.82;90.57;96197.31;1782925;79;25263;-86
2021/11/27 10:32:06;;;;;;;;;;;;;;;3.83;90.54;96193.28;1782227;78;20415;-85
2021/11/27 10:34:32;;;;;;;;;;;;;;;3.87;90.50;96192.59;1784304;79;25392;-86
2021/11/27 10:36:58;;;;;;;;;;;;;;;3.88;90.46;96185.16;1785120;79;20297;-86
2021/11/27 10:39:25;;;;;;;;;;;;;;;3.86;90.41;96176.25;1757054;79;26112;-85
2021/11/27 10:41:55;;;;;;;;;;;;;;;3.85;90.38;96186.70;1788814;79;23922;-85
2021/11/27 10:44:27;;;;;;;;;;;;;;;3.84;90.32;96188.94;1778849;79;20468;-85
2021/11/27 10:46:56;;;;;;;;;;;;;;;3.89;90.30;96185.05;1775769;79;24792;-85
2021/11/27 10:49:26;;;;;;;;;;;;;;;3.84;90.25;96180.70;1728657;79;21423;-85
2021/11/27 10:52:05;;;;;;;;;;;;;;;3.88;90.22;96183.86;1780904;79;26067;-85
2021/11/27 10:54:44;;;;;;;;;;;;;;;3.88;90.18;96183.39;1782843;79;24706;-86
2021/11/27 10:57:11;;;;;;;;;;;;;;;3.90;90.13;96180.70;1773895;79;20337;-84
2021/11/27 10:59:43;;;;;;;;;;;;;;;3.85;90.06;96182.83;1775724;78;24803;-86
2021/11/27 11:02:12;;;;;;;;;;;;;;;3.81;90.01;96177.08;1780565;79;20317;-85
2021/11/27 11:04:39;;;;;;;;;;;;;;;3.82;89.93;96178.70;1773324;79;26170;-85
2021/11/27 11:07:19;;;;;;;;;;;;;;;3.83;89.89;96179.52;1777641;79;24658;-86
2021/11/27 11:10:06;;;;;;;;;;;;;;;3.82;89.84;96177.91;1778247;79;20199;-85
2021/11/27 11:12:40;;;;;;;;;;;;;;;3.82;89.76;96181.28;1760005;79;24732;-85
2021/11/27 11:15:23;;;;;;;;;;;;;;;3.78;89.71;96191.53;1774129;78;20621;-85
2021/11/27 11:17:48;;;;;;;;;;;;;;;3.76;89.63;96186.47;1779022;79;25978;-85
2021/11/27 11:20:15;;;;;;;;;;;;;;;3.73;89.59;96188.02;1787972;79;24647;-86
2021/11/27 11:22:43;;;;;;;;;;;;;;;3.71;89.55;96189.89;1781651;79;20159;-85
2021/11/27 11:25:10;;;;;;;;;;;;;;;3.71;89.52;96193.77;1780356;79;24722;-85
2021/11/27 11:27:40;;;;;;;;;;;;;;;3.70;89.48;96191.33;1783682;78;22052;-85
2021/11/27 11:30:15;;;;;;;;;;;;;;;3.64;89.44;96186.63;1781959;79;26856;-84
2021/11/27 11:32:40;;;;;;;;;;;;;;;3.61;89.38;96190.73;1742631;81;24445;-84
2021/11/27 11:35:08;;;;;;;;;;;;;;;3.58;89.32;96189.23;1738424;81;20436;-84
2021/11/27 11:37:38;;;;;;;;;;;;;;;3.56;89.26;96183.80;1726737;81;24982;-85
2021/11/27 11:40:03;;;;;;;;;;;;;;;3.49;89.20;96182.66;1719495;81;23140;-85
2021/11/27 11:42:30;;;;;;;;;;;;;;;3.48;89.15;96174.55;1712157;81;26605;-84
2021/11/27 11:44:56;;;;;;;;;;;;;;;3.48;89.08;96173.25;1707583;82;24457;-85
2021/11/27 11:47:25;;;;;;;;;;;;;;;3.45;89.07;96173.00;1724593;81;20370;-85
2021/11/27 11:49:53;;;;;;;;;;;;;;;3.46;89.03;96181.59;1711515;82;24847;-85
2021/11/27 11:52:21;;;;;;;;;;;;;;;3.44;89.02;96175.73;1725250;81;22074;-85
2021/11/27 11:54:49;;;;;;;;;;;;;;;3.46;89.00;96167.37;1717547;82;26212;-85
2021/11/27 11:57:15;;;;;;;;;;;;;;;3.50;88.97;96168.77;1722863;82;25296;-85
2021/11/27 11:59:41;;;;;;;;;;;;;;;3.49;88.96;96167.94;1717188;81;20314;-85
2021/11/27 12:02:15;;;;;;;;;;;;;;;3.56;88.96;96171.70;1780099;79;24589;-85
2021/11/27 12:05:01;;;;;;;;;;;;;;;3.55;88.93;96167.94;1766224;79;21907;-85
2021/11/27 12:07:44;;;;;;;;;;;;;;;3.56;88.94;96174.29;1778330;79;26156;-85
2021/11/27 12:10:12;;;;;;;;;;;;;;;3.59;88.92;96178.41;1747495;79;24124;-84
2021/11/27 12:12:38;;;;;;;;;;;;;;;3.61;88.91;96182.51;1780888;79;20289;-85
2021/11/27 12:15:04;;;;;;;;;;;;;;;3.65;88.90;96179.23;1764031;80;24742;-85
2021/11/27 12:17:31;;;;;;;;;;;;;;;3.67;88.93;96174.73;1774279;80;22082;-84
2021/11/27 12:20:00;;;;;;;;;;;;;;;3.68;88.92;96174.63;1771596;80;26101;-84
2021/11/27 12:22:31;;;;;;;;;;;;;;;3.73;88.96;96173.80;1765916;80;25205;-84
2021/11/27 12:25:14;;;;;;;;;;;;;;;3.82;89.00;96174.03;1776503;79;20304;-85
2021/11/27 12:28:09;;;;;;;;;;;;;;;3.88;88.99;96177.39;1772875;80;24838;-85
2021/11/27 12:30:44;;;;;;;;;;;;;;;3.88;89.00;96183.39;1781169;80;22101;-85
2021/11/27 12:33:29;;;;;;;;;;;;;;;3.86;89.02;96181.42;1740637;80;25986;-86
2021/11/27 12:35:55;;;;;;;;;;;;;;;3.88;89.00;96170.92;1775428;80;24469;-86
2021/11/27 12:38:27;;;;;;;;;;;;;;;3.84;89.00;96177.30;1771656;80;20209;-85
2021/11/27 12:40:55;;;;;;;;;;;;;;;3.79;88.98;96177.20;1767599;80;21916;-85
2021/11/27 12:43:25;;;;;;;;;;;;;;;3.77;88.93;96181.66;1766127;80;22088;-86
2021/11/27 12:45:50;;;;;;;;;;;;;;;3.77;88.86;96177.77;1763851;80;26011;-85
2021/11/27 12:48:31;;;;;;;;;;;;;;;3.82;88.81;96181.28;1780022;80;24626;-85
2021/11/27 12:51:02;;;;;;;;;;;;;;;3.84;88.76;96182.00;1769343;80;20237;-85
2021/11/27 12:53:28;;;;;;;;;;;;;;;3.85;88.74;96172.01;1761237;80;24784;-85
2021/11/27 12:55:56;;;;;;;;;;;;;;;3.92;88.71;96176.23;1751030;80;22019;-86
2021/11/27 12:58:28;;;;;;;;;;;;;;;3.93;88.70;96166.23;1764901;79;26019;-84